Time,TemperatureF,DewpointF,PressureIn,WindDirection,WindDirectionDegrees,WindSpeedMPH,WindSpeedGustMPH,Humidity,HourlyPrecipIn,Conditions,Clouds,dailyrainin,SoftwareType,DateUTC
2013-06-11 00:01:00,74.7,34.0,30.00,WSW,257,5.0,-999.0,23,-99.99,,,0.00,weatherlink.com 1.10,2013-06-11 06:01:00,
2013-06-11 00:16:00,73.1,33.0,30.00,West,262,6.0,-999.0,23,-99.99,,,0.00,weatherlink.com 1.10,2013-06-11 06:16:00,
2013-06-11 00:31:00,72.0,35.0,30.00,NNW,340,0.0,-999.0,26,-99.99,,,0.00,weatherlink.com 1.10,2013-06-11 06:31:00,
2013-06-11 01:01:00,72.0,34.0,29.99,WSW,256,7.0,-999.0,25,-99.99,,,0.00,weatherlink.com 1.10,2013-06-11 07:01:00,
2013-06-11 01:31:00,71.9,33.0,29.99,WSW,244,8.0,-999.0,24,-99.99,,,0.00,weatherlink.com 1.10,2013-06-11 07:31:00,
2013-06-11 01:46:00,71.8,33.0,29.98,WSW,253,8.0,-999.0,24,-99.99,,,0.00,weatherlink.com 1.10,2013-06-11 07:46:00,
2013-06-11 02:01:00,71.8,33.0,29.98,West,267,4.0,-999.0,24,-99.99,,,0.00,weatherlink.com 1.10,2013-06-11 08:01:00,
2013-06-11 02:16:00,71.4,34.0,29.98,WNW,287,4.0,-999.0,25,-99.99,,,0.00,weatherlink.com 1.10,2013-06-11 08:16:00,
2013-06-11 02:31:00,70.8,33.0,29.98,West,265,4.0,-999.0,25,-99.99,,,0.00,weatherlink.com 1.10,2013-06-11 08:31:00,
2013-06-11 02:46:00,70.3,33.0,29.98,WNW,291,3.0,-999.0,25,-99.99,,,0.00,weatherlink.com 1.10,2013-06-11 08:46:00,
2013-06-11 03:01:00,69.6,34.0,29.98,West,280,4.0,-999.0,27,-99.99,,,0.00,weatherlink.com 1.10,2013-06-11 09:01:00,
2013-06-11 03:16:00,68.1,33.0,29.98,West,273,2.0,-999.0,27,-99.99,,,0.00,weatherlink.com 1.10,2013-06-11 09:16:00,
2013-06-11 03:31:00,67.2,34.0,29.98,WNW,286,5.0,-999.0,29,-99.99,,,0.00,weatherlink.com 1.10,2013-06-11 09:31:00,
2013-06-11 03:46:00,66.6,34.0,29.98,WSW,256,0.0,-999.0,30,-99.99,,,0.00,weatherlink.com 1.10,2013-06-11 09:46:00,
2013-06-11 04:01:00,66.9,34.0,29.98,NW,313,4.0,-999.0,30,-99.99,,,0.00,weatherlink.com 1.10,2013-06-11 10:01:00,
2013-06-11 04:16:00,67.7,34.0,29.98,North,360,2.0,-999.0,29,-99.99,,,0.00,weatherlink.com 1.10,2013-06-11 10:16:00,
2013-06-11 04:31:00,67.3,33.0,29.98,North,5,2.0,-999.0,28,-99.99,,,0.00,weatherlink.com 1.10,2013-06-11 10:31:00,
2013-06-11 04:46:00,67.3,32.0,29.99,WSW,244,1.0,-999.0,27,-99.99,,,0.00,weatherlink.com 1.10,2013-06-11 10:46:00,
2013-06-11 05:01:00,65.8,35.0,30.00,SW,225,5.0,-999.0,32,-99.99,,,0.00,weatherlink.com 1.10,2013-06-11 11:01:00,
2013-06-11 05:31:00,62.5,34.0,30.00,WNW,288,0.0,-999.0,35,-99.99,,,0.00,weatherlink.com 1.10,2013-06-11 11:31:00,
2013-06-11 05:46:00,63.6,31.0,30.00,West,261,3.0,-999.0,29,-99.99,,,0.00,weatherlink.com 1.10,2013-06-11 11:46:00,
2013-06-11 06:01:00,63.6,35.0,30.00,WNW,294,3.0,-999.0,34,-99.99,,,0.00,weatherlink.com 1.10,2013-06-11 12:01:00,
2013-06-11 06:31:00,64.5,35.0,30.00,WNW,286,2.0,-999.0,34,-99.99,,,0.00,weatherlink.com 1.10,2013-06-11 12:31:00,
2013-06-11 06:46:00,65.7,37.0,30.00,WNW,295,0.0,-999.0,35,-99.99,,,0.00,weatherlink.com 1.10,2013-06-11 12:46:00,
2013-06-11 07:17:00,70.2,42.0,30.00,WNW,295,0.0,-999.0,36,-99.99,,,0.00,weatherlink.com 1.10,2013-06-11 13:17:00,
2013-06-11 07:31:00,72.1,42.0,30.00,NNE,16,3.0,-999.0,34,-99.99,,,0.00,weatherlink.com 1.10,2013-06-11 13:31:00,
2013-06-11 07:46:00,73.7,43.0,30.00,NNE,23,1.0,-999.0,33,-99.99,,,0.00,weatherlink.com 1.10,2013-06-11 13:46:00,
2013-06-11 08:01:00,75.5,44.0,29.99,NE,51,2.0,-999.0,32,-99.99,,,0.00,weatherlink.com 1.10,2013-06-11 14:01:00,
2013-06-11 08:16:00,77.0,42.0,30.00,East,90,2.0,-999.0,29,-99.99,,,0.00,weatherlink.com 1.10,2013-06-11 14:16:00,
2013-06-11 08:31:00,78.7,40.0,29.99,East,95,0.0,-999.0,25,-99.99,,,0.00,weatherlink.com 1.10,2013-06-11 14:31:00,
2013-06-11 09:01:00,80.7,40.0,29.99,ENE,58,0.0,-999.0,23,-99.99,,,0.00,weatherlink.com 1.10,2013-06-11 15:01:00,
2013-06-11 09:16:00,81.8,47.0,29.99,East,97,2.0,-999.0,30,-99.99,,,0.00,weatherlink.com 1.10,2013-06-11 15:16:00,
2013-06-11 09:31:00,82.0,38.0,29.98,ESE,109,2.0,-999.0,21,-99.99,,,0.00,weatherlink.com 1.10,2013-06-11 15:31:00,
2013-06-11 09:46:00,82.6,40.0,29.99,SSE,162,3.0,-999.0,22,-99.99,,,0.00,weatherlink.com 1.10,2013-06-11 15:46:00,
2013-06-11 10:01:00,83.6,44.0,29.99,ENE,74,0.0,-999.0,25,-99.99,,,0.00,weatherlink.com 1.10,2013-06-11 16:01:00,
2013-06-11 10:16:00,84.9,43.0,29.98,SSW,196,5.0,-999.0,23,-99.99,,,0.00,weatherlink.com 1.10,2013-06-11 16:16:00,
2013-06-11 10:31:00,86.5,30.0,29.98,SW,226,4.0,-999.0,13,-99.99,,,0.00,weatherlink.com 1.10,2013-06-11 16:31:00,
2013-06-11 10:46:00,87.1,29.0,29.98,NW,304,12.0,-999.0,12,-99.99,,,0.00,weatherlink.com 1.10,2013-06-11 16:46:00,
2013-06-11 11:01:00,87.5,22.0,29.97,WNW,300,13.0,-999.0,9,-99.99,,,0.00,weatherlink.com 1.10,2013-06-11 17:01:00,
2013-06-11 11:17:00,88.1,27.0,29.97,WNW,292,1.0,-999.0,11,-99.99,,,0.00,weatherlink.com 1.10,2013-06-11 17:17:00,
2013-06-11 11:31:00,90.2,29.0,29.97,East,85,6.0,-999.0,11,-99.99,,,0.00,weatherlink.com 1.10,2013-06-11 17:31:00,
2013-06-11 11:46:00,91.7,32.0,29.96,SSE,155,5.0,-999.0,12,-99.99,,,0.00,weatherlink.com 1.10,2013-06-11 17:46:00,
2013-06-11 12:01:00,92.2,28.0,29.95,East,81,10.0,-999.0,10,-99.99,,,0.00,weatherlink.com 1.10,2013-06-11 18:01:00,
2013-06-11 12:31:00,91.9,25.0,29.94,East,91,3.0,-999.0,9,-99.99,,,0.00,weatherlink.com 1.10,2013-06-11 18:31:00,
2013-06-11 12:46:00,92.3,23.0,29.94,NE,41,7.0,-999.0,8,-99.99,,,0.00,weatherlink.com 1.10,2013-06-11 18:46:00,
2013-06-11 13:01:00,92.9,26.0,29.93,SSE,148,16.0,-999.0,9,-99.99,,,0.00,weatherlink.com 1.10,2013-06-11 19:01:00,
2013-06-11 13:16:00,93.7,-7.0,29.92,SSW,202,19.0,-999.0,2,-99.99,,,0.00,weatherlink.com 1.10,2013-06-11 19:16:00,
2013-06-11 13:31:00,94.5,-7.0,29.91,WNW,299,16.0,-999.0,2,-99.99,,,0.00,weatherlink.com 1.10,2013-06-11 19:31:00,
2013-06-11 13:46:00,94.0,-7.0,29.91,SW,232,12.0,-999.0,2,-99.99,,,0.00,weatherlink.com 1.10,2013-06-11 19:46:00,
2013-06-11 14:01:00,94.2,-7.0,29.91,SW,236,20.0,-999.0,2,-99.99,,,0.00,weatherlink.com 1.10,2013-06-11 20:01:00,
2013-06-11 14:16:00,94.7,-7.0,29.91,WSW,250,15.0,-999.0,2,-99.99,,,0.00,weatherlink.com 1.10,2013-06-11 20:16:00,
2013-06-11 14:31:00,94.4,-7.0,29.91,SW,227,13.0,-999.0,2,-99.99,,,0.00,weatherlink.com 1.10,2013-06-11 20:31:00,
2013-06-11 15:01:00,95.0,2.0,29.91,WSW,244,21.0,-999.0,3,-99.99,,,0.00,weatherlink.com 1.10,2013-06-11 21:01:00,
2013-06-11 15:16:00,94.5,14.0,29.91,SW,235,23.0,-999.0,5,-99.99,,,0.00,weatherlink.com 1.10,2013-06-11 21:16:00,
2013-06-11 15:31:00,91.9,16.0,29.92,West,269,16.0,-999.0,6,-99.99,,,0.00,weatherlink.com 1.10,2013-06-11 21:31:00,
2013-06-11 15:46:00,91.2,22.0,29.92,WSW,245,11.0,-999.0,8,-99.99,,,0.00,weatherlink.com 1.10,2013-06-11 21:46:00,
2013-06-11 16:16:00,92.1,16.0,29.92,WSW,243,10.0,-999.0,6,-99.99,,,0.00,weatherlink.com 1.10,2013-06-11 22:16:00,
2013-06-11 16:31:00,92.0,16.0,29.92,West,269,8.0,-999.0,6,-99.99,,,0.00,weatherlink.com 1.10,2013-06-11 22:31:00,
2013-06-11 16:46:00,92.0,19.0,29.92,West,277,9.0,-999.0,7,-99.99,,,0.00,weatherlink.com 1.10,2013-06-11 22:46:00,
2013-06-11 17:01:00,92.3,20.0,29.92,West,280,13.0,-999.0,7,-99.99,,,0.00,weatherlink.com 1.10,2013-06-11 23:01:00,
2013-06-11 17:16:00,91.9,19.0,29.92,West,267,12.0,-999.0,7,-99.99,,,0.00,weatherlink.com 1.10,2013-06-11 23:16:00,
2013-06-11 17:31:00,91.6,16.0,29.92,WSW,248,18.0,-999.0,6,-99.99,,,0.00,weatherlink.com 1.10,2013-06-11 23:31:00,
2013-06-11 17:46:00,90.8,15.0,29.93,West,272,14.0,-999.0,6,-99.99,,,0.00,weatherlink.com 1.10,2013-06-11 23:46:00,
2013-06-11 18:16:00,90.0,14.0,29.94,West,260,20.0,-999.0,6,-99.99,,,0.00,weatherlink.com 1.10,2013-06-12 00:16:00,
2013-06-11 18:46:00,89.2,17.0,29.95,WSW,240,25.0,-999.0,7,-99.99,,,0.00,weatherlink.com 1.10,2013-06-12 00:46:00,
2013-06-11 19:01:00,88.5,20.0,29.95,West,276,19.0,-999.0,8,-99.99,,,0.00,weatherlink.com 1.10,2013-06-12 01:01:00,
2013-06-11 19:16:00,88.1,20.0,29.96,West,281,14.0,-999.0,8,-99.99,,,0.00,weatherlink.com 1.10,2013-06-12 01:16:00,
2013-06-11 19:31:00,87.7,19.0,29.96,WSW,244,10.0,-999.0,8,-99.99,,,0.00,weatherlink.com 1.10,2013-06-12 01:31:00,
2013-06-11 19:46:00,86.6,21.0,29.97,NW,318,10.0,-999.0,9,-99.99,,,0.00,weatherlink.com 1.10,2013-06-12 01:46:00,
2013-06-11 20:01:00,85.4,18.0,29.98,WNW,300,6.0,-999.0,8,-99.99,,,0.00,weatherlink.com 1.10,2013-06-12 02:01:00,
2013-06-11 20:31:00,83.7,13.0,29.98,West,278,13.0,-999.0,7,-99.99,,,0.00,weatherlink.com 1.10,2013-06-12 02:31:00,
2013-06-11 20:46:00,82.3,18.0,29.99,West,265,6.0,-999.0,9,-99.99,,,0.00,weatherlink.com 1.10,2013-06-12 02:46:00,
2013-06-11 21:01:00,80.5,17.0,30.00,WNW,289,6.0,-999.0,9,-99.99,,,0.00,weatherlink.com 1.10,2013-06-12 03:01:00,
2013-06-11 21:16:00,81.2,17.0,30.01,NW,310,7.0,-999.0,9,-99.99,,,0.00,weatherlink.com 1.10,2013-06-12 03:16:00,
2013-06-11 21:31:00,81.3,17.0,30.02,NW,309,3.0,-999.0,9,-99.99,,,0.00,weatherlink.com 1.10,2013-06-12 03:31:00,
2013-06-11 21:46:00,80.2,19.0,30.02,North,351,9.0,-999.0,10,-99.99,,,0.00,weatherlink.com 1.10,2013-06-12 03:46:00,
2013-06-11 22:01:00,79.0,20.0,30.03,WSW,244,9.0,-999.0,11,-99.99,,,0.00,weatherlink.com 1.10,2013-06-12 04:01:00,
2013-06-11 22:16:00,79.3,20.0,30.04,WNW,296,2.0,-999.0,11,-99.99,,,0.00,weatherlink.com 1.10,2013-06-12 04:16:00,
2013-06-11 22:31:00,76.1,22.0,30.04,East,82,6.0,-999.0,13,-99.99,,,0.00,weatherlink.com 1.10,2013-06-12 04:31:00,
2013-06-11 22:46:00,73.8,23.0,30.04,NNE,29,2.0,-999.0,15,-99.99,,,0.00,weatherlink.com 1.10,2013-06-12 04:46:00,
2013-06-11 23:01:00,72.5,24.0,30.05,West,278,3.0,-999.0,16,-99.99,,,0.00,weatherlink.com 1.10,2013-06-12 05:01:00,
2013-06-11 23:16:00,71.2,23.0,30.05,ENE,69,2.0,-999.0,16,-99.99,,,0.00,weatherlink.com 1.10,2013-06-12 05:16:00,
2013-06-11 23:31:00,70.6,25.0,30.06,East,101,5.0,-999.0,18,-99.99,,,0.00,weatherlink.com 1.10,2013-06-12 05:31:00,
2013-06-11 23:46:00,71.0,22.0,30.07,ENE,76,4.0,-999.0,16,-99.99,,,0.00,weatherlink.com 1.10,2013-06-12 05:46:00,